Flight Track Log - Related Links

Times and Time Zones

All times are in EDT time to prevent confusion due to time zone crossing. See the VH-SCC flight status page for this flight to view local times or setup timezone preferences in your user account.

Time Position Orientation Groundspeed Altitude Reporting Facility
EDT Latitude Longitude Course Direction KTS MPH feet Rate Location/Type
Wed 03:56:09 AM -34.9617 138.5130 234° Southwest 140 161 2,100  Level Aus ATC (RADAR)
Wed 03:56:58 AM -34.9860 138.4719 234° Southwest 180 207 5,100 3,975 Climbing Aus ATC (RADAR)
Wed 03:57:29 AM -35.0029 138.4517 224° Southwest 170 196 7,400 4,080 Climbing Aus ATC (RADAR)
Wed 03:58:13 AM -35.0282 138.4193 226° Southwest 177 204 10,200 3,576 Climbing Aus ATC (RADAR)
Wed 03:59:08 AM -35.0711 138.4319 166° South 203 234 13,300 3,216 Climbing Aus ATC (RADAR)
Wed 04:00:18 AM -35.1047 138.5135 117° Southeast 268 308 16,900 3,024 Climbing Aus ATC (RADAR)
Wed 04:01:13 AM -35.0985 138.5997 85° East 281 323 19,600 2,460 Climbing Aus ATC (RADAR)
Wed 04:01:58 AM -35.0956 138.6754 87° East 305 351 21,000 1,800 Climbing Aus ATC (RADAR)
Wed 04:02:33 AM -35.0906 138.7402 85° East 330 380 22,000 1,745 Climbing Aus ATC (RADAR)
Wed 04:03:48 AM -35.0816 138.8865 86° East 353 406 24,200 1,657 Climbing Aus ATC (RADAR)
Wed 04:04:18 AM -35.0773 138.9497 85° East 372 428 24,900 2,421 Climbing Aus ATC (RADAR)
Wed 04:05:42 AM -35.0665 139.1180 86° East 343 395 28,800 2,460 Climbing Aus ATC (RADAR)
Wed 04:06:37 AM -35.0591 139.2210 85° East 336 387 30,600 1,714 Climbing Aus ATC (RADAR)
Wed 04:07:27 AM -35.0531 139.3180 86° East 348 400 31,800 1,271 Climbing Aus ATC (RADAR)
Wed 04:08:02 AM -35.0477 139.3888 85° East 361 415 32,400 900 Climbing Aus ATC (RADAR)
Wed 04:09:07 AM -35.0382 139.5287 85° East 391 450 33,300 1,043 Climbing Aus ATC (RADAR)
Wed 04:09:57 AM -35.0301 139.6420 85° East 404 465 34,400 1,400 Climbing Aus ATC (RADAR)
Wed 04:10:37 AM -35.0236 139.7318 85° East 401 461 35,400 1,453 Climbing Aus ATC (RADAR)
Wed 04:11:32 AM -35.0151 139.8516 85° East 386 444 36,700 1,036 Climbing Aus ATC (RADAR)
Wed 04:12:27 AM -35.0066 139.9716 85° East 390 449 37,300 635 Climbing Aus ATC (RADAR)
Wed 04:12:57 AM -35.0009 140.0383 84° East 395 455 37,600 600 Climbing Aus ATC (RADAR)
Wed 04:13:47 AM -34.9929 140.1515 85° East 404 465 38,100 738 Climbing Aus ATC (RADAR)
Wed 04:15:07 AM -34.9787 140.3334 85° East 404 465 39,200 500 Climbing Aus ATC (RADAR)
Wed 04:15:47 AM -34.9776 140.4262 89° East 414 476 39,100 -61 Descending Aus ATC (RADAR)
Wed 04:16:46 AM -34.9793 140.5708 91° East 430 495 39,100  Level Aus ATC (RADAR)
Wed 04:17:31 AM -34.9800 140.6820 90° East 439 505 39,100  Level Aus ATC (RADAR)
Wed 04:18:06 AM -34.9807 140.7692 91° East 440 506 39,100  Level Aus ATC (RADAR)
Wed 04:19:16 AM -34.9811 140.9442 90° East 443 510 39,100  Level Aus ATC (RADAR)
Wed 04:20:31 AM -34.9821 141.1323 90° East 444 511 39,100  Level Aus ATC (RADAR)
Wed 04:21:31 AM -34.9824 141.2827 90° East 446 513 39,100  Level Aus ATC (RADAR)
Wed 04:22:16 AM -34.9822 141.3956 90° East 444 511 39,100  Level Aus ATC (RADAR)
Wed 04:22:56 AM -34.9829 141.4961 90° East 444 511 39,100  Level Aus ATC (RADAR)
Wed 04:23:41 AM -34.9821 141.6096 90° East 445 512 39,100 63 Level Aus ATC (RADAR)
Wed 04:24:31 AM -34.9818 141.7361 90° East 447 514 39,200 48 Climbing Aus ATC (RADAR)
Wed 04:25:45 AM -34.9819 141.9254 90° East 445 512 39,200  Level Aus ATC (RADAR)
Wed 04:26:45 AM -34.9807 142.0773 90° East 447 514 39,200  Level Aus ATC (RADAR)
Wed 04:27:30 AM -34.9795 142.1915 89° East 448 516 39,200  Level Aus ATC (RADAR)
Wed 04:28:05 AM -34.9797 142.2799 90° East 448 516 39,200  Level Aus ATC (RADAR)
Wed 04:29:00 AM -34.9779 142.4192 89° East 448 516 39,200  Level Aus ATC (RADAR)
Wed 04:29:40 AM -34.9777 142.5199 90° East 445 512 39,200  Level Aus ATC (RADAR)
Wed 04:30:45 AM -34.9762 142.6834 89° East 443 510 39,200 -50 Level Aus ATC (RADAR)
Wed 04:31:40 AM -34.9746 142.8214 89° East 444 511 39,100 -60 Descending Aus ATC (RADAR)
Wed 04:32:25 AM -34.9729 142.9341 89° East 442 509 39,100  Level Aus ATC (RADAR)
Wed 04:33:05 AM -34.9718 143.0343 89° East 442 509 39,100  Level Aus ATC (RADAR)
Wed 04:33:50 AM -34.9700 143.1464 89° East 440 506 39,100  Level Aus ATC (RADAR)
Wed 04:34:49 AM -34.9656 143.2958 88° East 438 504 39,100  Level Aus ATC (RADAR)
Wed 04:36:09 AM -34.9519 143.4952 85° East 440 506 39,100  Level Aus ATC (RADAR)
Wed 04:37:09 AM -34.9410 143.6439 85° East 439 505 39,100  Level Aus ATC (RADAR)
Wed 04:37:54 AM -34.9333 143.7554 85° East 438 504 39,100  Level Aus ATC (RADAR)
Wed 04:38:29 AM -34.9267 143.8421 85° East 438 504 39,100  Level Aus ATC (RADAR)
Wed 04:39:24 AM -34.9175 143.9801 85° East 443 510 39,100 -126 Level Aus ATC (RADAR)
Wed 04:40:04 AM -34.9095 144.0798 84° East 442 509 38,900 -89 Descending Aus ATC (RADAR)
Wed 04:41:39 AM -34.8925 144.3182 85° East 444 511 38,900  Level Aus ATC (RADAR)
Wed 04:42:39 AM -34.8809 144.4686 85° East 444 511 38,900  Level Aus ATC (RADAR)
Wed 04:43:24 AM -34.8724 144.5811 85° East 443 510 38,900  Level Aus ATC (RADAR)
Wed 04:43:59 AM -34.8653 144.6694 84° East 446 513 38,900  Level Aus ATC (RADAR)
Wed 04:44:44 AM -34.8569 144.7825 85° East 446 513 38,900  Level Aus ATC (RADAR)
Wed 04:46:18 AM -34.8376 145.0210 84° East 445 512 38,900  Level Aus ATC (RADAR)
Wed 04:47:18 AM -34.8252 145.1725 84° East 447 514 38,900  Level Aus ATC (RADAR)
Wed 04:48:03 AM -34.8158 145.2865 84° East 448 516 38,900  Level Aus ATC (RADAR)
Wed 04:48:38 AM -34.8084 145.3750 84° East 446 513 38,900  Level Aus ATC (RADAR)
Wed 04:49:33 AM -34.7970 145.5142 84° East 448 516 38,900  Level Aus ATC (RADAR)
Wed 04:50:13 AM -34.7850 145.6146 82° East 449 517 38,900  Level Aus ATC (RADAR)
Wed 04:51:23 AM -34.7566 145.7879 79° East 444 511 38,900  Level Aus ATC (RADAR)
Wed 04:52:23 AM -34.7326 145.9355 79° East 441 507 38,900 57 Level Aus ATC (RADAR)
Wed 04:53:08 AM -34.7153 146.0454 79° East 437 503 39,000 71 Climbing Aus ATC (RADAR)
Wed 04:53:48 AM -34.6991 146.1431 79° East 437 503 39,000  Level Aus ATC (RADAR)
Wed 04:54:48 AM -34.6757 146.2895 79° East 437 503 39,000  Level Aus ATC (RADAR)
Wed 04:55:28 AM -34.6597 146.3864 79° East 435 501 39,000  Level Aus ATC (RADAR)
Wed 04:56:58 AM -34.6236 146.6045 79° East 434 499 39,000  Level Aus ATC (RADAR)
Wed 04:57:57 AM -34.5987 146.7512 78° East 439 505 39,000  Level Aus ATC (RADAR)
Wed 04:58:47 AM -34.5782 146.8734 79° East 439 505 39,000  Level Aus ATC (RADAR)
Wed 04:59:27 AM -34.5621 146.9712 79° East 439 505 39,000  Level Aus ATC (RADAR)
Wed 05:00:14 AM -34.5426 147.0802 78° East 435 501 39,000  Level Aus ATC (RADAR)
Wed 05:01:18 AM -34.5157 147.2366 78° East 431 496 39,000  Level Aus ATC (RADAR)
Wed 05:02:07 AM -34.4952 147.3574 78° East 434 499 39,000  Level Aus ATC (RADAR)
Wed 05:02:37 AM -34.4827 147.4291 78° East 432 497 39,000  Level Aus ATC (RADAR)
Wed 05:03:32 AM -34.4599 147.5616 78° East 433 498 39,000  Level Aus ATC (RADAR)
Wed 05:04:27 AM -34.4361 147.6936 78° East 432 497 39,000  Level Aus ATC (RADAR)
Wed 05:05:12 AM -34.4174 147.8019 78° East 432 497 39,000  Level Aus ATC (RADAR)
Wed 05:05:52 AM -34.4000 147.8982 78° East 433 498 39,000 -353 Level Aus ATC (RADAR)
Wed 05:07:11 AM -34.3641 148.0959 78° East 449 517 38,300 -514 Descending Aus ATC (RADAR)
Wed 05:08:12 AM -34.3367 148.2474 78° East 454 522 37,800 -540 Descending Aus ATC (RADAR)
Wed 05:08:51 AM -34.3186 148.3501 78° East 460 529 37,400 -532 Descending Aus ATC (RADAR)
Wed 05:09:31 AM -34.2991 148.4532 77° East 463 533 37,100 -720 Descending Aus ATC (RADAR)
Wed 05:10:31 AM -34.2710 148.6079 78° East 460 529 36,200 -1,248 Descending Aus ATC (RADAR)
Wed 05:11:36 AM -34.2406 148.7732 78° East 454 522 34,500 -1,800 Descending Aus ATC (RADAR)
Wed 05:12:11 AM -34.2233 148.8631 77° East 459 528 33,200 -1,768 Descending Aus ATC (RADAR)
Wed 05:13:11 AM -34.1955 149.0127 77° East 442 509 31,700 -1,657 Descending Aus ATC (RADAR)
Wed 05:13:56 AM -34.1752 149.1198 77° East 424 488 30,300 -2,047 Descending Aus ATC (RADAR)
Wed 05:14:36 AM -34.1577 149.2135 77° East 416 479 28,800 -2,333 Descending Aus ATC (RADAR)
Wed 05:15:26 AM -34.1351 149.3297 77° East 412 474 26,800 -2,520 Descending Aus ATC (RADAR)
Wed 05:17:06 AM -34.0917 149.5556 77° East 395 455 22,500 -2,516 Descending Aus ATC (RADAR)
Wed 05:18:01 AM -34.0685 149.6745 77° East 381 438 20,300 -2,340 Descending Aus ATC (RADAR)
Wed 05:18:46 AM -34.0499 149.7688 77° East 373 429 18,600 -2,259 Descending Aus ATC (RADAR)
Wed 05:19:26 AM -34.0342 149.8502 77° East 362 417 17,100 -2,100 Descending Aus ATC (RADAR)
Wed 05:20:26 AM -34.0113 149.9680 77° East 345 397 15,100 -1,895 Descending Aus ATC (RADAR)
Wed 05:21:01 AM -33.9981 150.0329 76° East 332 382 14,100 -1,818 Descending Aus ATC (RADAR)
Wed 05:22:05 AM -33.9756 150.1497 77° East 316 364 12,100 -1,714 Descending Aus ATC (RADAR)
Wed 05:23:00 AM -33.9565 150.2428 76° East 302 348 10,700 -1,620 Descending Aus ATC (RADAR)
Wed 05:23:45 AM -33.9416 150.3194 77° East 301 346 9,400 -1,535 Descending Aus ATC (RADAR)
Wed 05:24:26 AM -33.9282 150.3858 76° East 296 341 8,500 -1,516 Descending Aus ATC (RADAR)
Wed 05:25:20 AM -33.9223 150.4766 86° East 287 330 7,000 -1,532 Descending Aus ATC (RADAR)
Wed 05:26:00 AM -33.9257 150.5401 94° East 275 316 6,100 -1,260 Descending Aus ATC (RADAR)
Wed 05:27:00 AM -33.9298 150.6310 93° East 256 295 4,900 -1,250 Descending Aus ATC (RADAR)
Wed 05:28:00 AM -33.9365 150.7145 96° East 240 276 3,600 -1,200 Descending Aus ATC (RADAR)
Wed 05:28:45 AM -33.9393 150.7743 93° East 228 262 2,800 -1,129 Descending Aus ATC (RADAR)
Wed 05:29:25 AM -33.9396 150.8258 90° East 223 257 2,000 -638 Descending Aus ATC (RADAR)
Wed 05:30:19 AM -33.9367 150.8898 87° East 196 226 1,800 -379 Descending Aus ATC (RADAR)
Wed 05:31:00 AM -33.9332 150.9314 84° East 183 211 1,400 -382 Descending Aus ATC (RADAR)
Wed 05:32:09 AM -33.9457 150.9902 104° East 153 176 1,100 -558 Descending Aus ATC (RADAR)
Wed 05:33:09 AM -33.9324 151.0070 46° Northeast 107 123 200 -900 Descending Aus ATC (RADAR)

Login

Don't have an account? Register now (free) for customized features, flight alerts, and more!